Time;durP1;ratioP1;P1;durP2;ratioP2;P2;SDS_P1;SDS_P2;PMS_P1;PMS_P2;Temp;Humidity;BMP_temperature;BMP_pressure;BME280_temperature;BME280_humidity;BME280_pressure;Samples;Min_cycle;Max_cycle;Signal;HPM_P1;HPM_P2
2022/06/18 00:00:27;;;;;;;3.12;2.83;;;;;;;24.58;49.59;100957.52;1695092;80;21186;-78
2022/06/18 00:02:53;;;;;;;4.62;3.12;;;;;;;24.58;49.63;100955.56;1706490;83;21429;-78
2022/06/18 00:05:20;;;;;;;3.20;2.90;;;;;;;24.58;49.63;100953.35;1725301;81;21258;-81
2022/06/18 00:07:53;;;;;;;3.98;3.00;;;;;;;24.58;49.67;100956.95;1710365;82;21052;-78
2022/06/18 00:10:23;;;;;;;4.62;3.00;;;;;;;24.57;49.67;100955.89;1723528;82;21091;-78
2022/06/18 00:15:38;;;;;;;5.58;3.00;;;;;;;24.57;49.68;100953.92;1707079;82;21044;-79
2022/06/18 00:18:11;;;;;;;3.22;2.90;;;;;;;24.57;49.70;100962.84;1709411;81;21282;-78
2022/06/18 00:20:38;;;;;;;6.28;3.00;;;;;;;24.57;49.71;100965.05;1713633;82;21545;-78
2022/06/18 00:23:06;;;;;;;2.77;2.58;;;;;;;24.57;49.72;100960.88;1695318;83;21589;-78
2022/06/18 00:25:38;;;;;;;4.60;2.95;;;;;;;24.56;49.75;100960.67;1701430;82;21449;-78
2022/06/18 00:28:16;;;;;;;3.95;3.00;;;;;;;24.56;49.73;100963.45;1693109;83;21067;-78
2022/06/18 00:30:42;;;;;;;3.52;3.22;;;;;;;24.56;49.75;100963.45;1700590;83;21206;-78
2022/06/18 00:33:09;;;;;;;3.67;2.70;;;;;;;24.55;49.77;100953.47;1709221;83;21012;-78
2022/06/18 00:35:35;;;;;;;5.05;3.27;;;;;;;24.55;49.79;100960.42;1717362;82;21514;-78
2022/06/18 00:38:03;;;;;;;4.05;2.92;;;;;;;24.55;49.79;100959.03;1700772;83;21344;-78
2022/06/18 00:40:33;;;;;;;3.62;3.00;;;;;;;24.55;49.78;100959.61;1692202;83;21023;-78
2022/06/18 00:43:03;;;;;;;4.45;3.15;;;;;;;24.56;49.80;100959.27;1706917;82;21048;-77
2022/06/18 00:45:29;;;;;;;;;;;;;;;24.55;49.81;100956.83;1691183;85;21016;-78
2022/06/18 00:48:16;;;;;;;5.70;3.00;;;;;;;24.55;49.83;100958.22;1696925;82;20318;-77
2022/06/18 00:50:50;;;;;;;3.58;2.90;;;;;;;24.54;49.80;100951.02;1685961;81;22082;-79
2022/06/18 00:53:25;;;;;;;2.83;2.35;;;;;;;24.53;49.80;100949.38;1704666;83;21083;-78
2022/06/18 00:56:06;;;;;;;3.15;2.70;;;;;;;24.52;49.80;100951.38;1695458;82;21071;-78
2022/06/18 00:58:52;;;;;;;3.55;3.00;;;;;;;24.52;49.81;100952.77;1696226;83;21541;-78
2022/06/18 01:01:22;;;;;;;3.55;2.95;;;;;;;24.52;49.82;100951.38;1700370;82;21032;-78
2022/06/18 01:03:56;;;;;;;5.15;3.55;;;;;;;24.51;49.82;100952.52;1694737;81;21507;-78
2022/06/18 01:06:31;;;;;;;3.72;2.77;;;;;;;24.51;49.83;100951.13;1701970;83;21036;-78
2022/06/18 01:09:02;;;;;;;2.52;2.33;;;;;;;24.51;49.85;100949.74;1717679;83;21020;-78
2022/06/18 01:11:30;;;;;;;3.85;3.05;;;;;;;24.51;49.86;100942.79;1708899;82;21020;-78
2022/06/18 01:13:57;;;;;;;3.30;2.92;;;;;;;24.52;49.87;100945.00;1692291;83;21025;-79
2022/06/18 01:16:24;;;;;;;4.78;3.00;;;;;;;24.51;49.86;100951.13;1693878;81;21048;-78
2022/06/18 01:18:51;;;;;;;3.72;2.70;;;;;;;24.50;49.88;100949.50;1727763;80;21055;-78
2022/06/18 01:21:56;;;;;;;3.15;2.83;;;;;;;24.51;49.88;100952.52;1743654;80;21036;-78
2022/06/18 01:24:32;;;;;;;5.22;2.83;;;;;;;24.51;49.89;100949.74;1737371;81;21486;-79
2022/06/18 01:26:59;;;;;;;3.20;2.90;;;;;;;24.50;49.87;100939.77;1728696;82;21147;-79
2022/06/18 01:29:25;;;;;;;3.33;2.72;;;;;;;24.50;49.86;100935.59;1741475;81;21438;-78
2022/06/18 01:31:52;;;;;;;3.62;2.70;;;;;;;24.50;49.89;100935.59;1732698;82;21622;-79
2022/06/18 01:34:20;;;;;;;2.95;2.65;;;;;;;24.50;49.87;100932.81;1712136;82;21089;-78
2022/06/18 01:36:46;;;;;;;5.08;3.10;;;;;;;24.51;49.90;100929.45;1727762;82;21138;-78
2022/06/18 01:39:18;;;;;;;3.20;2.90;;;;;;;24.50;49.88;100925.86;1716535;81;21551;-78
2022/06/18 01:41:50;;;;;;;4.72;2.77;;;;;;;24.49;49.88;100919.23;1725264;82;22662;-79
2022/06/18 01:44:40;;;;;;;3.35;2.83;;;;;;;24.50;49.88;100925.86;1714585;82;21566;-78
2022/06/18 01:47:29;;;;;;;2.95;2.75;;;;;;;24.49;49.88;100920.05;1725188;81;21061;-78
2022/06/18 01:50:01;;;;;;;2.85;2.52;;;;;;;24.49;49.87;100929.78;1712897;82;21048;-78
2022/06/18 01:52:32;;;;;;;4.85;3.00;;;;;;;24.49;49.86;100931.17;1712372;81;21123;-78
2022/06/18 01:55:02;;;;;;;3.37;2.75;;;;;;;24.50;49.84;100943.12;1738849;82;22521;-79
2022/06/18 01:57:35;;;;;;;3.20;2.50;;;;;;;24.49;49.85;100940.09;1717815;83;21033;-78
2022/06/18 02:00:12;;;;;;;3.12;2.83;;;;;;;24.49;49.85;100940.09;1713203;81;21080;-78
2022/06/18 02:02:38;;;;;;;3.30;2.40;;;;;;;24.49;49.87;100942.88;1725909;82;21511;-78
2022/06/18 02:05:06;;;;;;;3.10;2.80;;;;;;;24.49;49.84;100938.70;1736135;81;21479;-79
2022/06/18 02:07:33;;;;;;;4.87;3.22;;;;;;;24.48;49.85;100939.31;1730779;81;21119;-78
2022/06/18 02:10:07;;;;;;;3.92;2.52;;;;;;;24.49;49.86;100952.03;1741818;82;20989;-78
2022/06/18 02:12:37;;;;;;;4.58;2.65;;;;;;;24.48;49.82;100951.83;1732774;81;21047;-78
2022/06/18 02:15:13;;;;;;;3.65;2.75;;;;;;;24.50;49.82;100952.85;1717398;82;21108;-79
2022/06/18 02:17:39;;;;;;;3.47;2.30;;;;;;;24.48;49.82;100954.61;1722321;81;21033;-78
2022/06/18 02:20:16;;;;;;;4.12;2.67;;;;;;;24.49;49.81;100952.03;1739435;81;21136;-78
2022/06/18 02:22:47;;;;;;;4.67;2.62;;;;;;;24.49;49.82;100952.61;1746234;81;21267;-79
2022/06/18 02:25:15;;;;;;;3.83;2.65;;;;;;;24.49;49.80;100956.78;1736987;82;21032;-79
2022/06/18 02:27:41;;;;;;;3.65;2.40;;;;;;;24.47;49.79;100958.53;1726879;82;21513;-78
2022/06/18 02:30:16;;;;;;;3.40;2.35;;;;;;;24.48;49.80;100964.34;1722361;82;20988;-78
2022/06/18 02:33:02;;;;;;;4.67;2.27;;;;;;;24.48;49.81;100956.57;1748969;81;21842;-79
2022/06/18 02:35:32;;;;;;;3.37;3.05;;;;;;;24.47;49.81;100961.31;1737849;79;21028;-78
2022/06/18 02:37:58;;;;;;;3.37;2.35;;;;;;;24.47;49.77;100955.75;1723889;82;21101;-78
2022/06/18 02:40:28;;;;;;;4.25;2.92;;;;;;;24.47;49.77;100957.14;1725669;81;21040;-78
2022/06/18 02:42:59;;;;;;;2.50;2.30;;;;;;;24.47;49.79;100954.36;1746754;81;21016;-78
2022/06/18 02:45:26;;;;;;;3.02;2.70;;;;;;;24.47;49.76;100965.48;1738615;81;21134;-78
2022/06/18 02:47:55;;;;;;;3.35;2.62;;;;;;;24.47;49.79;100971.63;1738088;81;21046;-79
2022/06/18 02:50:23;;;;;;;4.75;2.62;;;;;;;24.47;49.76;100972.44;1738600;81;21605;-79
2022/06/18 02:52:53;;;;;;;4.35;2.72;;;;;;;24.46;49.76;100973.59;1737401;82;21085;-78
2022/06/18 02:55:36;;;;;;;3.52;2.37;;;;;;;24.47;49.76;100978.00;1737670;82;21087;-79
2022/06/18 02:58:20;;;;;;;2.30;2.10;;;;;;;24.47;49.77;100982.75;1723634;82;21883;-78
2022/06/18 03:00:53;;;;;;;3.30;2.52;;;;;;;24.47;49.77;100990.52;1723379;82;21115;-79
2022/06/18 03:03:21;;;;;;;3.55;2.30;;;;;;;24.47;49.77;100986.34;1733288;82;21021;-78
2022/06/18 03:05:48;;;;;;;4.17;2.58;;;;;;;24.47;49.77;100992.48;1729785;81;21048;-78
2022/06/18 03:08:15;;;;;;;2.60;2.30;;;;;;;24.47;49.76;100993.88;1741853;81;21096;-78
2022/06/18 03:13:26;;;;;;;3.83;2.52;;;;;;;24.47;49.72;101001.64;1730228;82;21024;-78
2022/06/18 03:15:55;;;;;;;2.67;2.40;;;;;;;24.47;49.72;101003.03;1728838;82;21013;-79
2022/06/18 03:18:24;;;;;;;3.42;2.35;;;;;;;24.46;49.73;101005.57;1746545;82;21084;-78
2022/06/18 03:21:04;;;;;;;3.62;2.60;;;;;;;24.46;49.73;101008.35;1735269;82;21072;-78
2022/06/18 03:23:31;;;;;;;2.92;2.62;;;;;;;24.46;49.72;101005.57;1742003;81;21107;-78
2022/06/18 03:25:58;;;;;;;3.35;2.42;;;;;;;24.46;49.72;101008.35;1731997;82;21045;-78
2022/06/18 03:28:25;;;;;;;4.10;2.85;;;;;;;24.47;49.73;101010.56;1716887;83;21021;-77
2022/06/18 03:30:52;;;;;;;5.35;2.40;;;;;;;24.47;49.73;101010.56;1728825;81;21076;-80
2022/06/18 03:33:24;;;;;;;3.17;2.50;;;;;;;24.45;49.71;101016.45;1723316;81;21047;-78
2022/06/18 03:35:51;;;;;;;3.45;2.70;;;;;;;24.46;49.71;101015.30;1733293;82;22411;-78
2022/06/18 03:38:17;;;;;;;2.75;2.37;;;;;;;24.46;49.70;101018.09;1717244;81;21048;-78
2022/06/18 03:40:44;;;;;;;3.08;2.25;;;;;;;24.46;49.70;101028.39;1729505;82;21044;-78
2022/06/18 03:43:12;;;;;;;3.00;2.15;;;;;;;24.46;49.69;101026.43;1746581;82;21045;-78
2022/06/18 03:45:41;;;;;;;5.62;2.62;;;;;;;24.46;49.69;101030.60;1737345;82;21019;-78
2022/06/18 03:48:09;;;;;;;4.22;2.62;;;;;;;24.45;49.67;101023.41;1746759;81;21478;-78
2022/06/18 03:50:35;;;;;;;2.98;2.17;;;;;;;24.46;49.67;101025.04;1735698;82;21020;-78
2022/06/18 03:53:01;;;;;;;3.70;2.50;;;;;;;24.46;49.69;101025.61;1716873;83;21064;-78
2022/06/18 03:55:28;;;;;;;2.62;2.30;;;;;;;24.46;49.66;101026.43;1734530;81;21036;-79
2022/06/18 03:57:54;;;;;;;3.47;2.30;;;;;;;24.46;49.66;101021.44;1716843;82;21053;-79
2022/06/18 04:00:22;;;;;;;3.60;2.37;;;;;;;24.45;49.64;101020.63;1725850;81;21102;-78
2022/06/18 04:02:48;;;;;;;3.85;2.42;;;;;;;24.45;49.63;101023.41;1746026;82;21088;-79
2022/06/18 04:05:15;;;;;;;3.75;2.55;;;;;;;24.46;49.63;101021.44;1737823;81;21096;-78
2022/06/18 04:07:41;;;;;;;2.40;2.20;;;;;;;24.47;49.62;101024.47;1719047;80;21601;-78
2022/06/18 04:10:10;;;;;;;3.08;2.22;;;;;;;24.47;49.62;101018.91;1725300;82;21060;-78
2022/06/18 04:12:37;;;;;;;2.52;2.20;;;;;;;24.46;49.62;101018.66;1743401;82;22216;-78
2022/06/18 04:15:04;;;;;;;3.67;2.17;;;;;;;24.46;49.63;101022.83;1742173;81;21103;-78
2022/06/18 04:17:33;;;;;;;3.15;2.12;;;;;;;24.45;49.62;101020.63;1734901;82;21045;-78
2022/06/18 04:19:59;;;;;;;3.10;2.15;;;;;;;24.45;49.59;101019.23;1741954;82;21068;-78
2022/06/18 04:22:27;;;;;;;2.80;2.60;;;;;;;24.46;49.59;101038.13;1748330;81;21102;-78
2022/06/18 04:24:54;;;;;;;3.85;2.20;;;;;;;24.45;49.60;101032.32;1746525;80;21525;-78
2022/06/18 04:27:20;;;;;;;2.80;2.50;;;;;;;24.46;49.60;101032.56;1724267;82;21036;-78
2022/06/18 04:29:47;;;;;;;3.17;2.40;;;;;;;24.45;49.58;101035.92;1698875;81;22474;-78
2022/06/18 04:32:13;;;;;;;3.00;2.45;;;;;;;24.45;49.58;101038.70;1731959;81;21080;-79
2022/06/18 04:34:39;;;;;;;3.47;2.08;;;;;;;24.46;49.57;101042.30;1726823;80;21076;-78
2022/06/18 04:37:06;;;;;;;3.02;2.17;;;;;;;24.46;49.56;101050.07;1735358;81;21403;-78
2022/06/18 04:39:32;;;;;;;2.75;2.30;;;;;;;24.45;49.57;101045.66;1741903;81;21561;-79
2022/06/18 04:41:58;;;;;;;2.45;2.20;;;;;;;24.46;49.57;101048.68;1729883;82;21095;-78
2022/06/18 04:44:25;;;;;;;2.95;2.45;;;;;;;24.46;49.55;101055.63;1731681;82;21080;-78
2022/06/18 04:46:51;;;;;;;3.52;2.60;;;;;;;24.46;49.53;101057.02;1719168;81;21036;-79
2022/06/18 04:49:17;;;;;;;2.90;2.30;;;;;;;24.48;49.54;101058.09;1729952;82;21123;-78
2022/06/18 04:51:44;;;;;;;2.83;2.10;;;;;;;24.47;49.55;101056.45;1720669;82;21064;-78
2022/06/18 04:54:16;;;;;;;2.27;2.05;;;;;;;24.48;49.52;101059.48;1728252;81;21142;-77
2022/06/18 04:56:43;;;;;;;4.33;2.40;;;;;;;24.47;49.51;101062.83;1722810;82;21064;-78
2022/06/18 04:59:10;;;;;;;3.08;2.20;;;;;;;24.49;49.50;101068.04;1736886;81;21088;-77
2022/06/18 05:01:36;;;;;;;3.22;2.15;;;;;;;24.49;49.48;101072.21;1746791;81;21038;-78
2022/06/18 05:04:03;;;;;;;2.80;2.35;;;;;;;24.49;49.47;101081.37;1737747;81;21076;-78
2022/06/18 05:06:30;;;;;;;4.37;2.10;;;;;;;24.50;49.47;101076.63;1724191;82;21479;-78
2022/06/18 05:08:56;;;;;;;4.42;2.35;;;;;;;24.49;49.47;101082.77;1717855;82;22175;-78
2022/06/18 05:11:23;;;;;;;3.75;2.30;;;;;;;24.50;49.43;101082.19;1731628;81;21079;-79
2022/06/18 05:13:49;;;;;;;3.58;2.17;;;;;;;24.50;49.42;101083.58;1737781;81;21211;-78
2022/06/18 05:16:16;;;;;;;2.80;2.30;;;;;;;24.50;49.41;101088.58;1732903;82;21032;-78
2022/06/18 05:18:46;;;;;;;3.50;2.20;;;;;;;24.50;49.39;101092.74;1737709;82;21099;-79
2022/06/18 05:21:12;;;;;;;2.52;2.02;;;;;;;24.50;49.39;101089.97;1719268;82;21114;-78
2022/06/18 05:23:39;;;;;;;2.77;2.40;;;;;;;24.49;49.36;101093.89;1697572;81;21109;-79
2022/06/18 05:26:06;;;;;;;3.22;2.30;;;;;;;24.50;49.36;101100.27;1713315;83;21143;-78
2022/06/18 05:28:32;;;;;;;2.08;1.87;;;;;;;24.50;49.36;101103.88;1700968;80;21519;-78
2022/06/18 05:30:59;;;;;;;2.08;1.87;;;;;;;24.50;49.35;101106.66;1709547;83;21536;-81
2022/06/18 05:33:25;;;;;;;2.77;2.22;;;;;;;24.50;49.36;101106.66;1705616;82;21060;-78
2022/06/18 05:35:52;;;;;;;2.20;1.92;;;;;;;24.50;49.35;101108.61;1712662;83;20976;-78
2022/06/18 05:38:20;;;;;;;2.27;2.02;;;;;;;24.52;49.33;101111.89;1721509;82;21038;-78
2022/06/18 05:40:47;;;;;;;2.25;1.90;;;;;;;24.50;49.35;101106.66;1712798;81;21011;-78
2022/06/18 05:43:13;;;;;;;3.33;2.25;;;;;;;24.50;49.32;101116.39;1723617;81;21110;-78
2022/06/18 05:45:40;;;;;;;3.45;2.10;;;;;;;24.52;49.33;101117.45;1709707;83;21072;-78
2022/06/18 05:48:08;;;;;;;3.10;1.75;;;;;;;24.51;49.30;101116.63;1698697;81;21078;-78
2022/06/18 05:50:34;;;;;;;2.52;1.80;;;;;;;24.51;49.30;101123.59;1711540;83;21491;-79
2022/06/18 05:53:01;;;;;;;4.30;2.00;;;;;;;24.52;49.28;101123.02;1723736;81;21011;-78
2022/06/18 05:55:27;;;;;;;2.50;2.30;;;;;;;24.51;49.27;101124.98;1710003;83;21019;-78
2022/06/18 05:57:55;;;;;;;2.60;2.10;;;;;;;24.51;49.29;101126.38;1725794;82;21122;-78
2022/06/18 06:00:25;;;;;;;3.77;2.30;;;;;;;24.52;49.29;101128.58;1715227;83;21127;-78
2022/06/18 06:02:51;;;;;;;2.43;2.10;;;;;;;24.50;49.28;101123.34;1719810;82;21929;-77
2022/06/18 06:05:18;;;;;;;2.45;2.10;;;;;;;24.51;49.28;101125.55;1704194;81;21015;-79
2022/06/18 06:07:44;;;;;;;3.30;1.80;;;;;;;24.51;49.29;101123.59;1726160;81;21047;-79
2022/06/18 06:13:11;;;;;;;3.10;1.98;;;;;;;24.51;49.28;101126.38;1725819;83;21035;-78
2022/06/18 06:15:38;;;;;;;2.20;2.00;;;;;;;24.51;49.26;101131.11;1715728;80;21079;-79
2022/06/18 06:18:05;;;;;;;2.20;1.98;;;;;;;24.50;49.26;101133.08;1724714;81;21480;-78
2022/06/18 06:20:36;;;;;;;3.47;1.80;;;;;;;24.50;49.25;101129.48;1710206;82;21657;-78
2022/06/18 06:23:02;;;;;;;2.60;2.08;;;;;;;24.49;49.27;101128.66;1746994;81;21534;-78
2022/06/18 06:25:29;;;;;;;2.92;2.00;;;;;;;24.50;49.28;101132.26;1738050;81;21021;-79
2022/06/18 06:27:55;;;;;;;2.60;2.10;;;;;;;24.50;49.28;101141.42;1722880;82;21167;-78
2022/06/18 06:30:21;;;;;;;2.10;1.90;;;;;;;24.50;49.28;101146.98;1701162;82;21072;-78
2022/06/18 06:32:48;;;;;;;1.77;1.60;;;;;;;24.50;49.29;101148.95;1730541;82;21115;-78
2022/06/18 06:35:14;;;;;;;2.17;1.90;;;;;;;24.49;49.28;101146.73;1727353;82;21083;-77
2022/06/18 06:37:41;;;;;;;3.42;1.80;;;;;;;24.49;49.25;101141.17;1717062;83;21029;-79
2022/06/18 06:40:08;;;;;;;2.60;1.92;;;;;;;24.50;49.28;101149.77;1734366;82;21450;-78
2022/06/18 06:42:47;;;;;;;3.15;1.85;;;;;;;24.50;49.29;101149.77;1716661;83;21044;-79
2022/06/18 06:45:22;;;;;;;2.25;2.02;;;;;;;24.49;49.29;101150.91;1735648;81;21534;-78
2022/06/18 06:47:48;;;;;;;2.15;1.82;;;;;;;24.48;49.29;101146.52;1741905;81;21068;-78
2022/06/18 06:50:16;;;;;;;2.42;1.90;;;;;;;24.49;49.29;101145.92;1733746;81;21045;-78
2022/06/18 06:52:43;;;;;;;2.10;1.90;;;;;;;24.49;49.29;101153.69;1746794;82;21550;-78
2022/06/18 06:58:14;;;;;;;2.47;1.80;;;;;;;24.49;49.28;101152.30;1717655;82;21700;-78
2022/06/18 07:00:43;;;;;;;2.58;2.05;;;;;;;24.50;49.27;101153.12;1733134;82;20953;-78
2022/06/18 07:03:14;;;;;;;2.27;2.03;;;;;;;24.50;49.24;101158.11;1725026;81;21517;-78
2022/06/18 07:05:41;;;;;;;2.10;1.90;;;;;;;24.50;49.23;101157.30;1735569;80;21922;-78
2022/06/18 07:08:07;;;;;;;2.62;1.90;;;;;;;24.49;49.25;101155.08;1737296;82;20996;-78
2022/06/18 07:10:34;;;;;;;2.17;1.98;;;;;;;24.50;49.24;101156.72;1729655;82;21119;-79
2022/06/18 07:13:00;;;;;;;4.00;2.08;;;;;;;24.50;49.22;101158.69;1721817;81;21099;-78
2022/06/18 07:15:27;;;;;;;2.47;2.05;;;;;;;24.50;49.22;101156.72;1729880;82;21065;-78
2022/06/18 07:17:53;;;;;;;2.45;2.10;;;;;;;24.50;49.21;101158.69;1741084;82;21701;-78
2022/06/18 07:20:20;;;;;;;3.27;2.17;;;;;;;24.52;49.16;101162.78;1732750;81;21476;-78
2022/06/18 07:22:46;;;;;;;2.80;1.80;;;;;;;24.51;49.10;101159.75;1743564;81;21063;-79
2022/06/18 07:25:13;;;;;;;2.40;1.80;;;;;;;24.51;49.04;101153.37;1730010;82;21087;-80
2022/06/18 07:27:40;;;;;;;2.02;1.82;;;;;;;24.52;48.98;101160.00;1717000;82;21546;-78
2022/06/18 07:30:10;;;;;;;3.30;1.90;;;;;;;24.52;48.93;101157.22;1732195;82;21154;-78
2022/06/18 07:32:37;;;;;;;2.25;1.65;;;;;;;24.53;48.85;101157.43;1720438;82;21072;-79
2022/06/18 07:35:04;;;;;;;2.62;2.00;;;;;;;24.52;48.76;101164.74;1729790;82;21036;-78
2022/06/18 07:37:31;;;;;;;2.30;1.62;;;;;;;24.53;48.71;101169.95;1718315;82;21638;-79
2022/06/18 07:39:57;;;;;;;1.60;1.45;;;;;;;24.53;48.60;101165.77;1731901;82;21064;-78
2022/06/18 07:42:23;;;;;;;2.77;1.70;;;;;;;24.53;48.51;101164.38;1718078;81;21644;-78
2022/06/18 07:44:50;;;;;;;1.95;1.50;;;;;;;24.54;48.46;101163.81;1732742;82;21450;-78
2022/06/18 07:47:18;;;;;;;2.42;1.75;;;;;;;24.55;48.47;101162.67;1717412;81;20969;-78
2022/06/18 07:49:45;;;;;;;2.33;1.90;;;;;;;24.55;48.44;101162.67;1733113;82;21104;-78
2022/06/18 07:52:15;;;;;;;1.95;1.75;;;;;;;24.55;48.52;101168.23;1716675;82;20980;-79
2022/06/18 07:54:43;;;;;;;1.82;1.60;;;;;;;24.56;48.60;101167.09;1734285;81;21148;-78
2022/06/18 07:57:09;;;;;;;2.05;1.82;;;;;;;24.56;48.53;101171.27;1716770;83;21092;-78
2022/06/18 07:59:38;;;;;;;3.30;1.70;;;;;;;24.56;48.58;101160.13;1737037;82;21143;-81
2022/06/18 08:02:07;;;;;;;1.52;1.40;;;;;;;24.56;48.50;101165.13;1746620;82;21598;-78
2022/06/18 08:04:33;;;;;;;2.08;1.62;;;;;;;24.56;48.42;101160.95;1729597;81;21096;-78
2022/06/18 08:07:00;;;;;;;2.92;1.60;;;;;;;24.57;48.33;101167.30;1741868;80;21175;-78
2022/06/18 08:09:26;;;;;;;2.90;1.92;;;;;;;24.57;48.26;101160.35;1742335;82;21091;-79
2022/06/18 08:11:53;;;;;;;2.27;1.80;;;;;;;24.57;48.24;101163.95;1743838;82;21049;-78
2022/06/18 08:14:19;;;;;;;2.17;1.98;;;;;;;24.57;48.25;101155.61;1729790;82;21028;-77
2022/06/18 08:16:46;;;;;;;2.35;1.82;;;;;;;24.57;48.31;101157.00;1722799;82;21076;-78
2022/06/18 08:19:12;;;;;;;2.20;1.72;;;;;;;24.58;48.38;101161.98;1731108;82;21486;-78
2022/06/18 08:21:41;;;;;;;3.35;1.90;;;;;;;24.58;48.35;101161.98;1713763;83;21079;-79
2022/06/18 08:24:11;;;;;;;2.50;1.77;;;;;;;24.58;48.29;101164.20;1711475;81;21052;-78
2022/06/18 08:26:38;;;;;;;2.67;1.98;;;;;;;24.57;48.29;101156.18;1697821;83;21482;-79
2022/06/18 08:29:06;;;;;;;2.00;1.80;;;;;;;24.58;48.36;101159.20;1709997;83;21694;-78
2022/06/18 08:31:38;;;;;;;1.92;1.72;;;;;;;24.57;48.39;101153.40;1725175;81;21629;-77
2022/06/18 08:34:04;;;;;;;2.00;1.80;;;;;;;24.58;48.35;101158.63;1709841;82;20968;-78
2022/06/18 08:36:31;;;;;;;2.10;1.52;;;;;;;24.59;48.30;101160.84;1725437;81;21047;-77
2022/06/18 08:38:57;;;;;;;1.75;1.55;;;;;;;24.58;48.28;101153.07;1640732;84;21099;-80
2022/06/18 08:41:35;;;;;;;2.02;1.70;;;;;;;24.58;48.21;101153.07;1696748;83;21114;-79
2022/06/18 08:44:25;;;;;;;2.42;1.80;;;;;;;24.58;48.17;101146.69;1709787;83;21627;-78
2022/06/18 08:47:35;;;;;;;2.52;1.85;;;;;;;24.58;48.23;101150.29;1722521;81;21509;-78
2022/06/18 08:50:41;;;;;;;2.47;1.73;;;;;;;24.57;48.19;101141.70;1714393;83;20996;-79
2022/06/18 08:53:51;;;;;;;2.00;1.62;;;;;;;24.57;48.22;101143.09;1714571;81;21770;-79
2022/06/18 08:56:35;;;;;;;2.33;2.00;;;;;;;24.57;48.21;101149.22;1696393;83;21521;-78
2022/06/18 08:59:27;;;;;;;2.08;1.67;;;;;;;24.57;48.24;101151.44;1712778;83;22166;-78
2022/06/18 09:02:20;;;;;;;1.70;1.60;;;;;;;24.56;48.24;101149.01;1699230;83;21031;-78
2022/06/18 09:04:52;;;;;;;1.85;1.40;;;;;;;24.55;48.32;101141.23;1709343;81;21086;-79
2022/06/18 09:07:56;;;;;;;2.20;1.80;;;;;;;24.55;48.27;101142.63;1700592;83;20979;-79
2022/06/18 09:10:46;;;;;;;2.50;1.85;;;;;;;24.55;48.31;101136.24;1717632;83;21582;-79
2022/06/18 09:13:24;;;;;;;1.98;1.52;;;;;;;24.54;48.32;101138.78;1725425;80;21043;-78
2022/06/18 09:15:54;;;;;;;2.80;2.17;;;;;;;24.53;48.39;101140.74;1726426;81;21043;-78
2022/06/18 09:18:44;;;;;;;2.22;1.75;;;;;;;24.54;48.47;101137.39;1698243;83;21031;-78
2022/06/18 09:21:19;;;;;;;1.95;1.75;;;;;;;24.54;48.52;101131.83;1696811;83;21098;-79
2022/06/18 09:23:53;;;;;;;2.17;1.90;;;;;;;24.55;48.48;101139.02;1712970;82;21038;-79
2022/06/18 09:26:24;;;;;;;2.77;1.90;;;;;;;24.53;48.52;101135.18;1725719;83;21705;-79
2022/06/18 09:29:01;;;;;;;;;;;;;;;24.55;48.57;101137.63;1708570;83;21044;-78
2022/06/18 09:31:54;;;;;;;2.22;1.75;;;;;;;24.54;48.58;101133.22;1694236;83;20247;-79
2022/06/18 09:34:32;;;;;;;2.05;1.85;;;;;;;24.54;48.62;101138.78;1709496;83;21043;-78
2022/06/18 09:37:03;;;;;;;2.52;2.05;;;;;;;24.53;48.63;101141.31;1696352;83;21071;-79
2022/06/18 09:39:40;;;;;;;2.00;1.80;;;;;;;24.54;48.64;101148.52;1667694;83;21191;-78
2022/06/18 09:42:15;;;;;;;1.67;1.50;;;;;;;24.54;48.61;101153.50;1701305;81;21055;-78
2022/06/18 09:44:58;;;;;;;2.20;1.82;;;;;;;24.55;48.66;101137.63;1709680;83;21043;-78
2022/06/18 09:47:47;;;;;;;2.10;1.60;;;;;;;24.55;48.70;101134.28;1699731;81;21637;-78
2022/06/18 09:50:21;;;;;;;2.60;1.85;;;;;;;24.55;48.70;101134.28;1733152;81;21002;-78
2022/06/18 09:52:51;;;;;;;2.02;1.75;;;;;;;24.56;48.73;101133.70;1718947;81;21304;-80
2022/06/18 09:55:25;;;;;;;2.62;1.98;;;;;;;24.56;48.76;101130.92;1696805;83;21086;-78
2022/06/18 09:57:55;;;;;;;1.90;1.70;;;;;;;24.55;48.78;101137.06;1709015;83;21576;-78
2022/06/18 10:00:24;;;;;;;2.05;1.50;;;;;;;24.55;48.74;101131.50;1725553;82;21869;-78
2022/06/18 10:03:10;;;;;;;2.77;2.00;;;;;;;24.56;48.71;101130.35;1715058;83;21585;-78
2022/06/18 10:08:33;;;;;;;2.67;1.60;;;;;;;24.57;48.76;101125.00;1710509;83;21346;-78
2022/06/18 10:11:07;;;;;;;2.42;1.92;;;;;;;24.56;48.77;101121.19;1724098;81;21527;-78
2022/06/18 10:13:28;;;;;;;2.40;1.70;;;;;;;24.57;48.78;101127.79;1708447;82;21111;-78
2022/06/18 10:15:59;;;;;;;3.87;1.80;;;;;;;24.58;48.79;101132.78;1725143;81;21024;-78
2022/06/18 10:18:40;;;;;;;2.67;1.67;;;;;;;24.57;48.79;101119.44;1669770;83;21478;-78
2022/06/18 10:21:26;;;;;;;1.55;1.45;;;;;;;24.56;48.79;101123.40;1697171;83;21012;-78
2022/06/18 10:24:07;;;;;;;1.90;1.70;;;;;;;24.57;48.75;101120.83;1676467;83;21051;-78
2022/06/18 10:27:00;;;;;;;2.65;1.70;;;;;;;24.57;48.79;101114.45;1698841;83;21515;-78
2022/06/18 10:29:50;;;;;;;2.42;1.60;;;;;;;24.57;48.80;101113.88;1712128;81;21597;-77
2022/06/18 10:33:06;;;;;;;2.25;1.50;;;;;;;24.56;48.83;101113.66;1714909;81;21929;-78
2022/06/18 10:35:56;;;;;;;3.00;1.80;;;;;;;24.56;48.82;101109.48;1694012;83;21071;-80
2022/06/18 10:38:46;;;;;;;2.27;1.67;;;;;;;24.56;48.80;101118.41;1708812;83;21024;-78
2022/06/18 10:41:30;;;;;;;2.10;1.90;;;;;;;24.55;48.79;101117.59;1723669;81;20997;-78
2022/06/18 10:44:23;;;;;;;3.65;1.75;;;;;;;24.55;48.81;101112.03;1714814;82;21095;-78
2022/06/18 10:47:05;;;;;;;2.22;2.02;;;;;;;24.55;48.81;101107.85;1698079;83;21132;-78
2022/06/18 10:49:32;;;;;;;2.17;1.70;;;;;;;24.56;48.89;101105.31;1693938;84;21056;-78
2022/06/18 10:51:59;;;;;;;2.25;2.05;;;;;;;24.54;48.84;101106.79;1698262;83;21043;-79
2022/06/18 10:54:35;;;;;;;3.15;1.67;;;;;;;24.55;48.87;101108.42;1710826;82;20949;-78
2022/06/18 10:57:02;;;;;;;2.20;2.00;;;;;;;24.55;48.89;101105.07;1714185;82;21039;-78
2022/06/18 10:59:35;;;;;;;2.22;1.70;;;;;;;24.56;48.91;101102.53;1706290;81;22162;-80
2022/06/18 11:02:16;;;;;;;2.47;1.90;;;;;;;24.56;48.90;101101.14;1719282;81;21047;-79
2022/06/18 11:04:56;;;;;;;1.90;1.47;;;;;;;24.56;48.91;101103.92;1688204;82;21051;-78
2022/06/18 11:07:25;;;;;;;2.00;1.60;;;;;;;24.55;48.90;101100.90;1702394;81;21550;-78
2022/06/18 11:09:57;;;;;;;2.10;1.52;;;;;;;24.56;48.89;101099.75;1715193;83;21478;-78
2022/06/18 11:12:29;;;;;;;1.95;1.80;;;;;;;24.57;48.90;101088.02;1715045;81;21082;-78
2022/06/18 11:14:56;;;;;;;1.80;1.45;;;;;;;24.56;48.91;101088.63;1701635;83;21020;-78
2022/06/18 11:17:33;;;;;;;2.20;1.80;;;;;;;24.56;48.89;101091.41;1680891;84;21505;-78
2022/06/18 11:20:19;;;;;;;3.72;2.05;;;;;;;24.58;48.89;101093.26;1715839;82;21114;-78
2022/06/18 11:22:51;;;;;;;1.90;1.70;;;;;;;24.58;48.90;101098.00;1690554;81;21031;-79
2022/06/18 11:25:37;;;;;;;2.45;1.70;;;;;;;24.58;48.90;101088.27;1689026;83;21769;-78
2022/06/18 11:28:15;;;;;;;1.87;1.50;;;;;;;24.58;48.91;101089.09;1712275;83;21043;-78
2022/06/18 11:30:44;;;;;;;2.50;1.90;;;;;;;24.59;48.87;101095.47;1696235;83;21098;-78
2022/06/18 11:33:34;;;;;;;2.75;1.77;;;;;;;24.58;48.87;101085.48;1706297;81;21169;-78
2022/06/18 11:36:15;;;;;;;2.67;1.67;;;;;;;24.58;48.86;101086.30;1696542;83;21576;-78
2022/06/18 11:38:44;;;;;;;1.80;1.57;;;;;;;24.59;48.89;101088.52;1725409;81;20949;-78
2022/06/18 11:41:27;;;;;;;2.02;1.62;;;;;;;24.59;48.88;101084.34;1723251;81;21596;-78
2022/06/18 11:43:59;;;;;;;2.20;1.70;;;;;;;24.59;48.90;101085.73;1711342;83;21599;-78
2022/06/18 11:47:05;;;;;;;2.08;1.80;;;;;;;24.59;48.89;101078.78;1719154;83;21107;-78
2022/06/18 11:49:37;;;;;;;2.10;1.90;;;;;;;24.59;48.90;101081.56;1723600;83;21520;-77
2022/06/18 11:52:15;;;;;;;2.58;1.80;;;;;;;24.58;48.90;101084.91;1693921;82;21612;-78
2022/06/18 11:55:04;;;;;;;2.33;1.60;;;;;;;24.59;48.89;101082.95;1725573;83;21520;-78
2022/06/18 11:57:56;;;;;;;1.77;1.67;;;;;;;24.59;48.89;101084.34;1708408;81;21114;-78
2022/06/18 12:00:26;;;;;;;2.70;1.70;;;;;;;24.58;48.88;101087.70;1724255;81;21082;-78
2022/06/18 12:03:25;;;;;;;1.92;1.72;;;;;;;24.57;48.89;101081.06;1709588;83;21506;-78